sensor_id;sensor_type;location;lat;lon;timestamp;temperature;humidity
47540;DHT22;33280;52.152;21.052;2022-10-17T00:00:48;14.10;99.90
47540;DHT22;33280;52.152;21.052;2022-10-17T00:03:15;14.10;99.90
47540;DHT22;33280;52.152;21.052;2022-10-17T00:05:44;14.00;99.90
47540;DHT22;33280;52.152;21.052;2022-10-17T00:08:12;14.00;99.90
47540;DHT22;33280;52.152;21.052;2022-10-17T00:10:42;14.00;99.90
47540;DHT22;33280;52.152;21.052;2022-10-17T00:13:10;14.00;99.90
47540;DHT22;33280;52.152;21.052;2022-10-17T00:15:37;14.00;99.90
47540;DHT22;33280;52.152;21.052;2022-10-17T00:18:04;14.00;99.90
47540;DHT22;33280;52.152;21.052;2022-10-17T00:20:34;13.90;99.90
47540;DHT22;33280;52.152;21.052;2022-10-17T00:23:01;13.90;99.90
47540;DHT22;33280;52.152;21.052;2022-10-17T00:25:28;13.90;99.90
47540;DHT22;33280;52.152;21.052;2022-10-17T00:27:55;13.90;99.90
47540;DHT22;33280;52.152;21.052;2022-10-17T00:30:22;13.90;99.90
47540;DHT22;33280;52.152;21.052;2022-10-17T00:32:49;13.80;99.90
47540;DHT22;33280;52.152;21.052;2022-10-17T00:35:16;13.80;99.90
47540;DHT22;33280;52.152;21.052;2022-10-17T00:37:43;13.80;99.90
47540;DHT22;33280;52.152;21.052;2022-10-17T00:40:10;13.80;99.90
47540;DHT22;33280;52.152;21.052;2022-10-17T00:42:37;13.80;99.90
47540;DHT22;33280;52.152;21.052;2022-10-17T00:45:20;13.70;99.90
47540;DHT22;33280;52.152;21.052;2022-10-17T00:47:54;13.70;99.90
47540;DHT22;33280;52.152;21.052;2022-10-17T00:50:23;13.70;99.90
47540;DHT22;33280;52.152;21.052;2022-10-17T00:52:51;13.60;99.90
47540;DHT22;33280;52.152;21.052;2022-10-17T00:55:27;13.60;99.90
47540;DHT22;33280;52.152;21.052;2022-10-17T00:57:57;13.60;99.90
47540;DHT22;33280;52.152;21.052;2022-10-17T01:00:25;13.60;99.90
47540;DHT22;33280;52.152;21.052;2022-10-17T01:02:52;13.60;99.90
47540;DHT22;33280;52.152;21.052;2022-10-17T01:05:19;13.60;99.90
47540;DHT22;33280;52.152;21.052;2022-10-17T01:07:48;13.60;99.90
47540;DHT22;33280;52.152;21.052;2022-10-17T01:10:16;13.60;99.90
47540;DHT22;33280;52.152;21.052;2022-10-17T01:13:12;13.60;99.90
47540;DHT22;33280;52.152;21.052;2022-10-17T01:21:54;13.60;99.90
47540;DHT22;33280;52.152;21.052;2022-10-17T01:27:35;13.60;99.90
47540;DHT22;33280;52.152;21.052;2022-10-17T01:30:12;13.70;99.90
47540;DHT22;33280;52.152;21.052;2022-10-17T01:36:00;13.70;99.90
47540;DHT22;33280;52.152;21.052;2022-10-17T01:38:45;13.70;99.90
47540;DHT22;33280;52.152;21.052;2022-10-17T01:41:23;13.80;99.90
47540;DHT22;33280;52.152;21.052;2022-10-17T01:44:20;13.80;99.90
47540;DHT22;33280;52.152;21.052;2022-10-17T01:46:51;13.90;99.90
47540;DHT22;33280;52.152;21.052;2022-10-17T01:49:24;14.00;99.90
47540;DHT22;33280;52.152;21.052;2022-10-17T01:51:57;14.00;99.90
47540;DHT22;33280;52.152;21.052;2022-10-17T01:54:51;14.00;99.90
47540;DHT22;33280;52.152;21.052;2022-10-17T01:59:51;14.10;99.90
47540;DHT22;33280;52.152;21.052;2022-10-17T02:02:23;14.10;99.90
47540;DHT22;33280;52.152;21.052;2022-10-17T02:04:52;14.10;99.90
47540;DHT22;33280;52.152;21.052;2022-10-17T02:07:21;14.10;99.90
47540;DHT22;33280;52.152;21.052;2022-10-17T02:09:48;14.10;99.90
47540;DHT22;33280;52.152;21.052;2022-10-17T02:20:51;13.90;99.90
47540;DHT22;33280;52.152;21.052;2022-10-17T02:23:51;13.80;99.90
47540;DHT22;33280;52.152;21.052;2022-10-17T02:26:33;13.70;99.90
47540;DHT22;33280;52.152;21.052;2022-10-17T02:29:09;13.60;99.90
47540;DHT22;33280;52.152;21.052;2022-10-17T02:31:48;13.60;99.90
47540;DHT22;33280;52.152;21.052;2022-10-17T02:37:19;13.50;99.90
47540;DHT22;33280;52.152;21.052;2022-10-17T02:39:49;13.40;99.90
47540;DHT22;33280;52.152;21.052;2022-10-17T02:42:17;13.30;99.90
47540;DHT22;33280;52.152;21.052;2022-10-17T02:44:46;13.30;99.90
47540;DHT22;33280;52.152;21.052;2022-10-17T02:49:59;13.10;99.90
47540;DHT22;33280;52.152;21.052;2022-10-17T02:55:22;13.00;99.90
47540;DHT22;33280;52.152;21.052;2022-10-17T02:57:54;13.00;99.90
47540;DHT22;33280;52.152;21.052;2022-10-17T03:00:24;13.00;99.90
47540;DHT22;33280;52.152;21.052;2022-10-17T03:02:53;13.00;99.90
47540;DHT22;33280;52.152;21.052;2022-10-17T03:05:28;13.00;99.90
47540;DHT22;33280;52.152;21.052;2022-10-17T03:07:55;13.00;99.90
47540;DHT22;33280;52.152;21.052;2022-10-17T03:10:22;13.00;99.90
47540;DHT22;33280;52.152;21.052;2022-10-17T03:12:49;12.90;99.90
47540;DHT22;33280;52.152;21.052;2022-10-17T03:15:16;12.90;99.90
47540;DHT22;33280;52.152;21.052;2022-10-17T03:17:43;12.80;99.90
47540;DHT22;33280;52.152;21.052;2022-10-17T03:20:11;12.80;99.90
47540;DHT22;33280;52.152;21.052;2022-10-17T03:22:37;12.90;99.90
47540;DHT22;33280;52.152;21.052;2022-10-17T03:25:05;12.90;99.90
47540;DHT22;33280;52.152;21.052;2022-10-17T03:27:32;12.90;99.90
47540;DHT22;33280;52.152;21.052;2022-10-17T03:29:59;12.90;99.90
47540;DHT22;33280;52.152;21.052;2022-10-17T03:32:25;13.00;99.90
47540;DHT22;33280;52.152;21.052;2022-10-17T03:34:52;13.00;99.90
47540;DHT22;33280;52.152;21.052;2022-10-17T03:37:19;13.00;99.90
47540;DHT22;33280;52.152;21.052;2022-10-17T03:39:46;13.00;99.90
47540;DHT22;33280;52.152;21.052;2022-10-17T03:42:13;13.00;99.90
47540;DHT22;33280;52.152;21.052;2022-10-17T03:44:40;13.00;99.90
47540;DHT22;33280;52.152;21.052;2022-10-17T03:47:07;13.00;99.90
47540;DHT22;33280;52.152;21.052;2022-10-17T03:49:39;13.00;99.90
47540;DHT22;33280;52.152;21.052;2022-10-17T03:52:10;13.10;99.90
47540;DHT22;33280;52.152;21.052;2022-10-17T03:54:38;13.00;99.90
47540;DHT22;33280;52.152;21.052;2022-10-17T03:57:05;13.00;99.90
47540;DHT22;33280;52.152;21.052;2022-10-17T03:59:32;13.00;99.90
47540;DHT22;33280;52.152;21.052;2022-10-17T04:01:58;13.00;99.90
47540;DHT22;33280;52.152;21.052;2022-10-17T04:04:25;13.00;99.90
47540;DHT22;33280;52.152;21.052;2022-10-17T04:06:52;13.00;99.90
47540;DHT22;33280;52.152;21.052;2022-10-17T04:09:19;13.00;99.90
47540;DHT22;33280;52.152;21.052;2022-10-17T04:11:46;13.00;99.90
47540;DHT22;33280;52.152;21.052;2022-10-17T04:14:13;13.00;99.90
47540;DHT22;33280;52.152;21.052;2022-10-17T04:16:40;13.00;99.90
47540;DHT22;33280;52.152;21.052;2022-10-17T04:19:06;13.00;99.90
47540;DHT22;33280;52.152;21.052;2022-10-17T04:21:33;13.00;99.90
47540;DHT22;33280;52.152;21.052;2022-10-17T04:24:00;13.00;99.90
47540;DHT22;33280;52.152;21.052;2022-10-17T04:26:27;12.90;99.90
47540;DHT22;33280;52.152;21.052;2022-10-17T04:28:54;12.90;99.90
47540;DHT22;33280;52.152;21.052;2022-10-17T04:31:21;12.90;99.90
47540;DHT22;33280;52.152;21.052;2022-10-17T04:33:48;12.90;99.90
47540;DHT22;33280;52.152;21.052;2022-10-17T04:36:18;12.80;99.90
47540;DHT22;33280;52.152;21.052;2022-10-17T04:38:45;12.80;99.90
47540;DHT22;33280;52.152;21.052;2022-10-17T04:41:14;12.70;99.90
47540;DHT22;33280;52.152;21.052;2022-10-17T04:43:42;12.70;99.90
47540;DHT22;33280;52.152;21.052;2022-10-17T04:46:14;12.70;99.90
47540;DHT22;33280;52.152;21.052;2022-10-17T04:48:41;12.60;99.90
47540;DHT22;33280;52.152;21.052;2022-10-17T04:51:13;12.60;99.90
47540;DHT22;33280;52.152;21.052;2022-10-17T04:53:42;12.60;99.90
47540;DHT22;33280;52.152;21.052;2022-10-17T04:56:16;12.60;99.90
47540;DHT22;33280;52.152;21.052;2022-10-17T04:58:44;12.70;99.90
47540;DHT22;33280;52.152;21.052;2022-10-17T05:01:13;12.60;99.90
47540;DHT22;33280;52.152;21.052;2022-10-17T05:03:41;12.60;99.90
47540;DHT22;33280;52.152;21.052;2022-10-17T05:06:10;12.60;99.90
47540;DHT22;33280;52.152;21.052;2022-10-17T05:08:37;12.60;99.90
47540;DHT22;33280;52.152;21.052;2022-10-17T05:11:07;12.60;99.90
47540;DHT22;33280;52.152;21.052;2022-10-17T05:13:40;12.60;99.90
47540;DHT22;33280;52.152;21.052;2022-10-17T05:16:07;12.60;99.90
47540;DHT22;33280;52.152;21.052;2022-10-17T05:18:34;12.60;99.90
47540;DHT22;33280;52.152;21.052;2022-10-17T05:21:02;12.60;99.90
47540;DHT22;33280;52.152;21.052;2022-10-17T05:23:29;12.60;99.90
47540;DHT22;33280;52.152;21.052;2022-10-17T05:25:56;12.60;99.90
47540;DHT22;33280;52.152;21.052;2022-10-17T05:28:23;12.60;99.90
47540;DHT22;33280;52.152;21.052;2022-10-17T05:30:50;12.70;99.90
47540;DHT22;33280;52.152;21.052;2022-10-17T05:33:17;12.70;99.90
47540;DHT22;33280;52.152;21.052;2022-10-17T05:35:44;12.80;99.90
47540;DHT22;33280;52.152;21.052;2022-10-17T05:38:11;12.80;99.90
47540;DHT22;33280;52.152;21.052;2022-10-17T05:40:38;12.80;99.90
47540;DHT22;33280;52.152;21.052;2022-10-17T05:43:05;12.80;99.90
47540;DHT22;33280;52.152;21.052;2022-10-17T05:45:32;12.80;99.90
47540;DHT22;33280;52.152;21.052;2022-10-17T05:47:58;12.90;99.90
47540;DHT22;33280;52.152;21.052;2022-10-17T05:50:25;12.90;99.90
47540;DHT22;33280;52.152;21.052;2022-10-17T05:52:53;13.00;99.90
47540;DHT22;33280;52.152;21.052;2022-10-17T05:55:20;13.00;99.90
47540;DHT22;33280;52.152;21.052;2022-10-17T05:57:48;13.10;99.90
47540;DHT22;33280;52.152;21.052;2022-10-17T06:00:16;13.10;99.90
47540;DHT22;33280;52.152;21.052;2022-10-17T06:02:43;13.20;99.90
47540;DHT22;33280;52.152;21.052;2022-10-17T06:05:25;13.20;99.90
47540;DHT22;33280;52.152;21.052;2022-10-17T06:07:52;13.30;99.90
47540;DHT22;33280;52.152;21.052;2022-10-17T06:10:26;13.40;99.90
47540;DHT22;33280;52.152;21.052;2022-10-17T06:12:54;13.40;99.90
47540;DHT22;33280;52.152;21.052;2022-10-17T06:15:24;13.50;99.90
47540;DHT22;33280;52.152;21.052;2022-10-17T06:17:51;13.50;99.90
47540;DHT22;33280;52.152;21.052;2022-10-17T06:20:18;13.50;99.90
47540;DHT22;33280;52.152;21.052;2022-10-17T06:22:45;13.50;99.90
47540;DHT22;33280;52.152;21.052;2022-10-17T06:25:12;13.50;99.90
47540;DHT22;33280;52.152;21.052;2022-10-17T06:27:40;13.50;99.90
47540;DHT22;33280;52.152;21.052;2022-10-17T06:30:07;13.50;99.90
47540;DHT22;33280;52.152;21.052;2022-10-17T06:32:40;13.60;99.90
47540;DHT22;33280;52.152;21.052;2022-10-17T06:35:07;13.60;99.90
47540;DHT22;33280;52.152;21.052;2022-10-17T06:37:34;13.70;99.90
47540;DHT22;33280;52.152;21.052;2022-10-17T06:40:04;13.70;99.90
47540;DHT22;33280;52.152;21.052;2022-10-17T06:42:33;13.70;99.90
47540;DHT22;33280;52.152;21.052;2022-10-17T06:45:00;13.70;99.90
47540;DHT22;33280;52.152;21.052;2022-10-17T06:47:27;13.80;99.90
47540;DHT22;33280;52.152;21.052;2022-10-17T06:49:54;13.90;99.90
47540;DHT22;33280;52.152;21.052;2022-10-17T06:52:21;13.90;99.90
47540;DHT22;33280;52.152;21.052;2022-10-17T06:54:49;14.00;99.90
47540;DHT22;33280;52.152;21.052;2022-10-17T06:57:34;14.20;99.90
47540;DHT22;33280;52.152;21.052;2022-10-17T07:00:01;14.30;99.90
47540;DHT22;33280;52.152;21.052;2022-10-17T07:02:28;14.40;99.90
47540;DHT22;33280;52.152;21.052;2022-10-17T07:04:56;14.50;99.90
47540;DHT22;33280;52.152;21.052;2022-10-17T07:07:23;14.60;99.90
47540;DHT22;33280;52.152;21.052;2022-10-17T07:09:50;14.60;99.90
47540;DHT22;33280;52.152;21.052;2022-10-17T07:12:17;14.80;99.90
47540;DHT22;33280;52.152;21.052;2022-10-17T07:14:44;14.80;99.90
47540;DHT22;33280;52.152;21.052;2022-10-17T07:17:12;14.90;99.90
47540;DHT22;33280;52.152;21.052;2022-10-17T07:19:39;15.00;99.90
47540;DHT22;33280;52.152;21.052;2022-10-17T07:22:06;15.10;99.90
47540;DHT22;33280;52.152;21.052;2022-10-17T07:24:33;15.10;99.90
47540;DHT22;33280;52.152;21.052;2022-10-17T07:27:00;15.20;99.90
47540;DHT22;33280;52.152;21.052;2022-10-17T07:29:28;15.40;99.90
47540;DHT22;33280;52.152;21.052;2022-10-17T07:31:54;15.40;99.90
47540;DHT22;33280;52.152;21.052;2022-10-17T07:34:22;15.50;99.90
47540;DHT22;33280;52.152;21.052;2022-10-17T07:36:53;15.60;99.90
47540;DHT22;33280;52.152;21.052;2022-10-17T07:39:20;15.80;99.90
47540;DHT22;33280;52.152;21.052;2022-10-17T07:41:48;16.00;99.90
47540;DHT22;33280;52.152;21.052;2022-10-17T07:44:15;16.00;99.90
47540;DHT22;33280;52.152;21.052;2022-10-17T07:46:42;16.10;99.90
47540;DHT22;33280;52.152;21.052;2022-10-17T07:49:09;16.30;99.90
47540;DHT22;33280;52.152;21.052;2022-10-17T07:51:36;16.80;99.90
47540;DHT22;33280;52.152;21.052;2022-10-17T07:54:04;17.50;99.90
47540;DHT22;33280;52.152;21.052;2022-10-17T07:56:31;18.00;99.90
47540;DHT22;33280;52.152;21.052;2022-10-17T07:58:59;18.30;99.90
47540;DHT22;33280;52.152;21.052;2022-10-17T08:01:30;18.50;99.90
47540;DHT22;33280;52.152;21.052;2022-10-17T08:03:57;18.70;99.90
47540;DHT22;33280;52.152;21.052;2022-10-17T08:06:24;18.80;99.90
47540;DHT22;33280;52.152;21.052;2022-10-17T08:08:52;19.00;99.90
47540;DHT22;33280;52.152;21.052;2022-10-17T08:11:22;19.30;99.90
47540;DHT22;33280;52.152;21.052;2022-10-17T08:14:12;19.60;99.90
47540;DHT22;33280;52.152;21.052;2022-10-17T08:16:53;20.00;99.90
47540;DHT22;33280;52.152;21.052;2022-10-17T08:19:21;20.20;99.90
47540;DHT22;33280;52.152;21.052;2022-10-17T08:21:47;20.00;99.90
47540;DHT22;33280;52.152;21.052;2022-10-17T08:24:17;20.00;99.90
47540;DHT22;33280;52.152;21.052;2022-10-17T08:26:44;19.90;99.90
47540;DHT22;33280;52.152;21.052;2022-10-17T08:29:15;19.70;99.90
47540;DHT22;33280;52.152;21.052;2022-10-17T08:31:42;19.60;99.90
47540;DHT22;33280;52.152;21.052;2022-10-17T08:34:19;19.70;99.90
47540;DHT22;33280;52.152;21.052;2022-10-17T08:36:47;19.80;99.90
47540;DHT22;33280;52.152;21.052;2022-10-17T08:39:14;19.90;99.90
47540;DHT22;33280;52.152;21.052;2022-10-17T08:50:42;20.70;99.90
47540;DHT22;33280;52.152;21.052;2022-10-17T08:53:49;20.70;99.90
47540;DHT22;33280;52.152;21.052;2022-10-17T08:56:20;21.10;99.90
47540;DHT22;33280;52.152;21.052;2022-10-17T08:59:29;21.00;99.90
47540;DHT22;33280;52.152;21.052;2022-10-17T09:18:01;23.20;99.90
47540;DHT22;33280;52.152;21.052;2022-10-17T09:23:50;23.50;99.90
47540;DHT22;33280;52.152;21.052;2022-10-17T09:26:34;23.90;99.90
47540;DHT22;33280;52.152;21.052;2022-10-17T09:29:09;23.60;99.90
47540;DHT22;33280;52.152;21.052;2022-10-17T09:31:42;23.80;99.90
47540;DHT22;33280;52.152;21.052;2022-10-17T09:34:10;23.80;99.90
47540;DHT22;33280;52.152;21.052;2022-10-17T09:36:39;24.10;99.90
47540;DHT22;33280;52.152;21.052;2022-10-17T09:41:42;23.50;99.90
47540;DHT22;33280;52.152;21.052;2022-10-17T09:47:21;24.10;99.90
47540;DHT22;33280;52.152;21.052;2022-10-17T09:49:50;24.80;99.90
47540;DHT22;33280;52.152;21.052;2022-10-17T09:52:20;25.20;99.90
47540;DHT22;33280;52.152;21.052;2022-10-17T09:54:49;25.30;99.90
47540;DHT22;33280;52.152;21.052;2022-10-17T09:57:18;24.80;99.90
47540;DHT22;33280;52.152;21.052;2022-10-17T09:59:58;25.20;99.90
47540;DHT22;33280;52.152;21.052;2022-10-17T10:02:28;25.20;99.90
47540;DHT22;33280;52.152;21.052;2022-10-17T10:05:16;25.70;99.90
47540;DHT22;33280;52.152;21.052;2022-10-17T10:08:09;26.00;99.90
47540;DHT22;33280;52.152;21.052;2022-10-17T10:10:39;26.40;99.90
47540;DHT22;33280;52.152;21.052;2022-10-17T10:15:45;26.20;99.90
47540;DHT22;33280;52.152;21.052;2022-10-17T10:21:12;26.70;99.90
47540;DHT22;33280;52.152;21.052;2022-10-17T10:23:41;27.20;99.90
47540;DHT22;33280;52.152;21.052;2022-10-17T10:29:35;27.60;99.90
47540;DHT22;33280;52.152;21.052;2022-10-17T10:32:22;27.70;99.90
47540;DHT22;33280;52.152;21.052;2022-10-17T10:35:05;27.40;99.90
47540;DHT22;33280;52.152;21.052;2022-10-17T10:37:42;27.10;99.90
47540;DHT22;33280;52.152;21.052;2022-10-17T10:40:46;27.00;99.90
47540;DHT22;33280;52.152;21.052;2022-10-17T10:43:40;27.30;99.90
47540;DHT22;33280;52.152;21.052;2022-10-17T10:46:20;27.20;99.90
47540;DHT22;33280;52.152;21.052;2022-10-17T10:48:58;27.50;99.90
47540;DHT22;33280;52.152;21.052;2022-10-17T10:51:48;27.30;99.90
47540;DHT22;33280;52.152;21.052;2022-10-17T10:54:23;27.30;99.90
47540;DHT22;33280;52.152;21.052;2022-10-17T10:56:53;27.00;99.90
47540;DHT22;33280;52.152;21.052;2022-10-17T11:11:00;28.00;99.90
47540;DHT22;33280;52.152;21.052;2022-10-17T11:13:47;27.40;99.90
47540;DHT22;33280;52.152;21.052;2022-10-17T11:17:03;27.50;99.90
47540;DHT22;33280;52.152;21.052;2022-10-17T11:29:39;28.30;98.80
47540;DHT22;33280;52.152;21.052;2022-10-17T11:34:48;29.20;98.10
47540;DHT22;33280;52.152;21.052;2022-10-17T11:37:30;29.40;97.00
47540;DHT22;33280;52.152;21.052;2022-10-17T11:40:19;29.80;96.50
47540;DHT22;33280;52.152;21.052;2022-10-17T11:45:50;29.50;95.30
47540;DHT22;33280;52.152;21.052;2022-10-17T11:49:04;29.30;94.90
47540;DHT22;33280;52.152;21.052;2022-10-17T11:55:33;30.00;93.90
47540;DHT22;33280;52.152;21.052;2022-10-17T12:01:51;30.50;92.60
47540;DHT22;33280;52.152;21.052;2022-10-17T12:08:02;30.00;92.90
47540;DHT22;33280;52.152;21.052;2022-10-17T12:14:42;30.70;91.80
47540;DHT22;33280;52.152;21.052;2022-10-17T12:17:29;31.40;90.10
47540;DHT22;33280;52.152;21.052;2022-10-17T12:34:30;31.20;87.00
47540;DHT22;33280;52.152;21.052;2022-10-17T12:47:58;29.70;87.80
47540;DHT22;33280;52.152;21.052;2022-10-17T13:05:36;26.70;93.90
47540;DHT22;33280;52.152;21.052;2022-10-17T13:46:05;23.30;99.90
47540;DHT22;33280;52.152;21.052;2022-10-17T14:09:48;22.70;99.90
47540;DHT22;33280;52.152;21.052;2022-10-17T14:12:23;22.80;99.90
47540;DHT22;33280;52.152;21.052;2022-10-17T14:28:33;22.60;99.90
47540;DHT22;33280;52.152;21.052;2022-10-17T14:38:11;22.40;99.90
47540;DHT22;33280;52.152;21.052;2022-10-17T14:51:26;22.20;99.90
47540;DHT22;33280;52.152;21.052;2022-10-17T14:54:33;22.10;99.90
47540;DHT22;33280;52.152;21.052;2022-10-17T14:57:12;22.00;99.90
47540;DHT22;33280;52.152;21.052;2022-10-17T14:59:56;21.90;99.90
47540;DHT22;33280;52.152;21.052;2022-10-17T15:07:44;21.60;99.90
47540;DHT22;33280;52.152;21.052;2022-10-17T15:10:39;21.50;99.90
47540;DHT22;33280;52.152;21.052;2022-10-17T15:19:14;21.30;99.90
47540;DHT22;33280;52.152;21.052;2022-10-17T15:21:59;21.20;99.90
47540;DHT22;33280;52.152;21.052;2022-10-17T15:26:57;21.00;99.90
47540;DHT22;33280;52.152;21.052;2022-10-17T15:29:24;20.90;99.90
47540;DHT22;33280;52.152;21.052;2022-10-17T15:35:17;20.80;99.90
47540;DHT22;33280;52.152;21.052;2022-10-17T15:38:34;20.50;99.90
47540;DHT22;33280;52.152;21.052;2022-10-17T15:41:09;20.50;99.90
47540;DHT22;33280;52.152;21.052;2022-10-17T15:43:36;20.50;99.90
47540;DHT22;33280;52.152;21.052;2022-10-17T15:46:03;20.40;99.90
47540;DHT22;33280;52.152;21.052;2022-10-17T15:48:33;20.30;99.90
47540;DHT22;33280;52.152;21.052;2022-10-17T15:51:00;20.30;99.90
47540;DHT22;33280;52.152;21.052;2022-10-17T15:53:39;20.20;99.90
47540;DHT22;33280;52.152;21.052;2022-10-17T15:56:36;20.10;99.90
47540;DHT22;33280;52.152;21.052;2022-10-17T15:59:05;20.00;99.90
47540;DHT22;33280;52.152;21.052;2022-10-17T16:01:54;20.00;99.90
47540;DHT22;33280;52.152;21.052;2022-10-17T16:06:57;19.90;99.90
47540;DHT22;33280;52.152;21.052;2022-10-17T16:09:24;19.80;99.90
47540;DHT22;33280;52.152;21.052;2022-10-17T16:11:51;19.70;99.90
47540;DHT22;33280;52.152;21.052;2022-10-17T16:14:18;19.70;99.90
47540;DHT22;33280;52.152;21.052;2022-10-17T16:16:45;19.70;99.90
47540;DHT22;33280;52.152;21.052;2022-10-17T16:19:11;19.60;99.90
47540;DHT22;33280;52.152;21.052;2022-10-17T16:21:39;19.50;99.90
47540;DHT22;33280;52.152;21.052;2022-10-17T16:24:11;19.40;99.90
47540;DHT22;33280;52.152;21.052;2022-10-17T16:26:39;19.40;99.90
47540;DHT22;33280;52.152;21.052;2022-10-17T16:29:06;19.40;99.90
47540;DHT22;33280;52.152;21.052;2022-10-17T16:31:37;19.30;99.90
47540;DHT22;33280;52.152;21.052;2022-10-17T16:34:05;19.20;99.90
47540;DHT22;33280;52.152;21.052;2022-10-17T16:36:34;19.10;99.90
47540;DHT22;33280;52.152;21.052;2022-10-17T16:39:01;19.10;99.90
47540;DHT22;33280;52.152;21.052;2022-10-17T16:41:36;19.10;99.90
47540;DHT22;33280;52.152;21.052;2022-10-17T16:44:22;19.10;99.90
47540;DHT22;33280;52.152;21.052;2022-10-17T16:46:49;19.00;99.90
47540;DHT22;33280;52.152;21.052;2022-10-17T16:49:16;19.00;99.90
47540;DHT22;33280;52.152;21.052;2022-10-17T16:51:43;19.00;99.90
47540;DHT22;33280;52.152;21.052;2022-10-17T16:54:10;18.90;99.90
47540;DHT22;33280;52.152;21.052;2022-10-17T16:56:37;18.90;99.90
47540;DHT22;33280;52.152;21.052;2022-10-17T16:59:04;18.90;99.90
47540;DHT22;33280;52.152;21.052;2022-10-17T17:01:31;18.90;99.90
47540;DHT22;33280;52.152;21.052;2022-10-17T17:03:58;18.90;99.90
47540;DHT22;33280;52.152;21.052;2022-10-17T17:06:27;18.80;99.90
47540;DHT22;33280;52.152;21.052;2022-10-17T17:08:55;18.70;99.90
47540;DHT22;33280;52.152;21.052;2022-10-17T17:11:24;18.60;99.90
47540;DHT22;33280;52.152;21.052;2022-10-17T17:13:54;18.60;99.90
47540;DHT22;33280;52.152;21.052;2022-10-17T17:16:23;18.60;99.90
47540;DHT22;33280;52.152;21.052;2022-10-17T17:18:55;18.60;99.90
47540;DHT22;33280;52.152;21.052;2022-10-17T17:21:25;18.50;99.90
47540;DHT22;33280;52.152;21.052;2022-10-17T17:23:54;18.50;99.90
47540;DHT22;33280;52.152;21.052;2022-10-17T17:26:33;18.50;99.90
47540;DHT22;33280;52.152;21.052;2022-10-17T17:29:07;18.30;99.90
47540;DHT22;33280;52.152;21.052;2022-10-17T17:31:35;18.30;99.90
47540;DHT22;33280;52.152;21.052;2022-10-17T17:34:09;18.30;99.90
47540;DHT22;33280;52.152;21.052;2022-10-17T17:36:44;18.30;99.90
47540;DHT22;33280;52.152;21.052;2022-10-17T17:39:12;18.40;99.90
47540;DHT22;33280;52.152;21.052;2022-10-17T17:41:41;18.30;99.90
47540;DHT22;33280;52.152;21.052;2022-10-17T17:44:10;18.30;99.90
47540;DHT22;33280;52.152;21.052;2022-10-17T17:46:42;18.30;99.90
47540;DHT22;33280;52.152;21.052;2022-10-17T17:49:13;18.30;99.90
47540;DHT22;33280;52.152;21.052;2022-10-17T17:51:49;18.20;99.90
47540;DHT22;33280;52.152;21.052;2022-10-17T17:54:19;18.20;99.90
47540;DHT22;33280;52.152;21.052;2022-10-17T17:56:49;18.30;99.90
47540;DHT22;33280;52.152;21.052;2022-10-17T17:59:16;18.20;99.90
47540;DHT22;33280;52.152;21.052;2022-10-17T18:01:43;18.20;99.90
47540;DHT22;33280;52.152;21.052;2022-10-17T18:04:10;18.20;99.90
47540;DHT22;33280;52.152;21.052;2022-10-17T18:06:38;18.20;99.90
47540;DHT22;33280;52.152;21.052;2022-10-17T18:09:06;18.10;99.90
47540;DHT22;33280;52.152;21.052;2022-10-17T18:11:34;18.00;99.90
47540;DHT22;33280;52.152;21.052;2022-10-17T18:14:07;17.90;99.90
47540;DHT22;33280;52.152;21.052;2022-10-17T18:16:36;18.00;99.90
47540;DHT22;33280;52.152;21.052;2022-10-17T18:19:15;17.90;99.90
47540;DHT22;33280;52.152;21.052;2022-10-17T18:21:43;17.90;99.90
47540;DHT22;33280;52.152;21.052;2022-10-17T18:24:13;17.90;99.90
47540;DHT22;33280;52.152;21.052;2022-10-17T18:26:40;17.80;99.90
47540;DHT22;33280;52.152;21.052;2022-10-17T18:29:07;17.80;99.90
47540;DHT22;33280;52.152;21.052;2022-10-17T18:31:34;17.80;99.90
47540;DHT22;33280;52.152;21.052;2022-10-17T18:34:15;17.70;99.90
47540;DHT22;33280;52.152;21.052;2022-10-17T18:36:56;17.70;99.90
47540;DHT22;33280;52.152;21.052;2022-10-17T18:39:24;17.60;99.90
47540;DHT22;33280;52.152;21.052;2022-10-17T18:41:51;17.60;99.90
47540;DHT22;33280;52.152;21.052;2022-10-17T18:44:18;17.60;99.90
47540;DHT22;33280;52.152;21.052;2022-10-17T18:46:50;17.60;99.90
47540;DHT22;33280;52.152;21.052;2022-10-17T18:49:26;17.60;99.90
47540;DHT22;33280;52.152;21.052;2022-10-17T18:51:53;17.50;99.90
47540;DHT22;33280;52.152;21.052;2022-10-17T18:54:20;17.50;99.90
47540;DHT22;33280;52.152;21.052;2022-10-17T18:56:55;17.50;99.90
47540;DHT22;33280;52.152;21.052;2022-10-17T18:59:26;17.40;99.90
47540;DHT22;33280;52.152;21.052;2022-10-17T19:01:53;17.40;99.90
47540;DHT22;33280;52.152;21.052;2022-10-17T19:04:20;17.40;99.90
47540;DHT22;33280;52.152;21.052;2022-10-17T19:06:47;17.40;99.90
47540;DHT22;33280;52.152;21.052;2022-10-17T19:09:14;17.40;99.90
47540;DHT22;33280;52.152;21.052;2022-10-17T19:11:42;17.30;99.90
47540;DHT22;33280;52.152;21.052;2022-10-17T19:14:10;17.30;99.90
47540;DHT22;33280;52.152;21.052;2022-10-17T19:16:48;17.30;99.90
47540;DHT22;33280;52.152;21.052;2022-10-17T19:19:32;17.30;99.90
47540;DHT22;33280;52.152;21.052;2022-10-17T19:21:59;17.20;99.90
47540;DHT22;33280;52.152;21.052;2022-10-17T19:24:29;17.10;99.90
47540;DHT22;33280;52.152;21.052;2022-10-17T19:26:57;17.10;99.90
47540;DHT22;33280;52.152;21.052;2022-10-17T19:29:26;17.10;99.90
47540;DHT22;33280;52.152;21.052;2022-10-17T19:31:54;17.10;99.90
47540;DHT22;33280;52.152;21.052;2022-10-17T19:34:21;17.10;99.90
47540;DHT22;33280;52.152;21.052;2022-10-17T19:36:48;17.00;99.90
47540;DHT22;33280;52.152;21.052;2022-10-17T19:39:18;17.00;99.90
47540;DHT22;33280;52.152;21.052;2022-10-17T19:41:46;17.10;99.90
47540;DHT22;33280;52.152;21.052;2022-10-17T19:44:14;17.00;99.90
47540;DHT22;33280;52.152;21.052;2022-10-17T19:46:41;16.90;99.90
47540;DHT22;33280;52.152;21.052;2022-10-17T19:49:13;16.90;99.90
47540;DHT22;33280;52.152;21.052;2022-10-17T19:51:40;16.90;99.90
47540;DHT22;33280;52.152;21.052;2022-10-17T19:54:07;16.80;99.90
47540;DHT22;33280;52.152;21.052;2022-10-17T19:56:35;16.80;99.90
47540;DHT22;33280;52.152;21.052;2022-10-17T19:59:04;16.80;99.90
47540;DHT22;33280;52.152;21.052;2022-10-17T20:01:34;16.70;99.90
47540;DHT22;33280;52.152;21.052;2022-10-17T20:04:02;16.70;99.90
47540;DHT22;33280;52.152;21.052;2022-10-17T20:06:29;16.60;99.90
47540;DHT22;33280;52.152;21.052;2022-10-17T20:08:57;16.60;99.90